Gt Bend, New York
Current Conditions -  °F | °C
As of 5:11 PM on Saturday 25 Oct 2014 (Local Time) from KGTB Reporting Station
Overcast Overcast  
Wind Chill: 54°   Ceiling: 2000
Heat Index: 54°   Visibility: 9mi
Dew Point: 52°   Wind: 6mph
Humidity: 94%   Direction: 240°WSW
Pressure: 29.52"   Gusts: NA
Location:  44.0344°N, 75.7193°W
Report Text: KGTB 252111Z AUTO 24005KT 9SM FEW002 SCT014 OVC020 12/11 A2952 RMK AO2 RAE2101DZB2101 CIG 014V021
Loading
Personal Weather Stations






























Interactive Weather Map New forecast layout! Learn more

10-Day Weather Forecast

Advertisements
Track Severe Weather on mobile